Time;durP1;ratioP1;P1;durP2;ratioP2;P2;SDS_P1;SDS_P2;PMS_P1;PMS_P2;Temp;Humidity;BMP_temperature;BMP_pressure;BME280_temperature;BME280_humidity;BME280_pressure;Samples;Min_cycle;Max_cycle;Signal;HPM_P1;HPM_P2
2023/11/13 00:02:12;;;;;;;4.15;3.25;;;;;;;8.25;89.61;96315.44;5113494;28;20040;-59
2023/11/13 00:04:38;;;;;;;4.53;3.67;;;;;;;8.24;89.49;96311.25;5113157;28;20039;-60
2023/11/13 00:07:03;;;;;;;3.47;2.75;;;;;;;8.08;88.13;96317.91;5114043;28;20066;-59
2023/11/13 00:09:29;;;;;;;5.60;3.00;;;;;;;7.97;87.95;96312.06;5113124;28;20043;-61
2023/11/13 00:11:55;;;;;;;2.13;1.85;;;;;;;7.92;87.16;96318.22;5114022;28;20499;-59
2023/11/13 00:14:21;;;;;;;2.47;1.80;;;;;;;7.92;85.68;96312.97;5113741;28;20063;-58
2023/11/13 00:16:47;;;;;;;2.30;1.33;;;;;;;7.89;85.40;96320.69;5113816;28;20035;-58
2023/11/13 00:19:13;;;;;;;1.30;1.17;;;;;;;7.82;84.95;96322.91;5114266;28;20043;-60
2023/11/13 00:21:38;;;;;;;1.50;1.10;;;;;;;7.63;83.93;96323.03;5114114;28;20520;-60
2023/11/13 00:24:06;;;;;;;1.95;1.20;;;;;;;7.68;85.26;96322.94;5113229;28;20043;-59
2023/11/13 00:26:32;;;;;;;1.55;1.42;;;;;;;7.65;83.18;96326.94;5113759;28;20092;-58
2023/11/13 00:28:58;;;;;;;1.35;1.17;;;;;;;7.62;82.81;96327.53;5112454;28;20122;-59
2023/11/13 00:31:23;;;;;;;1.10;1.00;;;;;;;7.55;83.74;96331.63;5112925;28;20035;-59
2023/11/13 00:33:49;;;;;;;1.02;0.98;;;;;;;7.54;84.34;96335.34;5111164;28;20059;-59
2023/11/13 00:36:16;;;;;;;1.17;1.10;;;;;;;7.55;84.39;96335.03;5095677;28;20043;-57
2023/11/13 00:38:42;;;;;;;0.95;0.93;;;;;;;7.54;84.90;96337.97;5113872;28;20088;-60
2023/11/13 00:41:14;;;;;;;0.98;0.90;;;;;;;7.46;85.73;96342.06;5113314;28;20047;-59
2023/11/13 00:43:40;;;;;;;2.10;1.15;;;;;;;7.43;85.11;96343.41;5112268;28;20040;-59
2023/11/13 00:46:07;;;;;;;3.58;1.02;;;;;;;7.32;85.11;96342.03;5112253;28;20047;-58
2023/11/13 00:48:33;;;;;;;1.05;1.00;;;;;;;7.29;85.51;96347.88;5113803;28;20401;-57
2023/11/13 00:51:01;;;;;;;1.80;1.67;;;;;;;7.30;87.38;96338.91;5113236;28;20039;-59
2023/11/13 00:53:34;;;;;;;1.20;0.98;;;;;;;7.33;86.36;96342.81;5112238;28;20054;-59
2023/11/13 00:56:00;;;;;;;1.10;1.00;;;;;;;7.32;86.67;96338.59;5113365;28;20504;-57
2023/11/13 00:58:26;;;;;;;1.67;0.98;;;;;;;7.35;86.95;96344.06;5113548;28;20039;-58
2023/11/13 01:00:52;;;;;;;0.90;0.90;;;;;;;7.24;85.95;96340.84;5112288;28;20035;-61
2023/11/13 01:03:17;;;;;;;0.80;0.80;;;;;;;7.19;85.80;96345.44;5102711;28;20418;-59
2023/11/13 01:05:43;;;;;;;2.63;0.90;;;;;;;7.17;86.18;96347.56;5091508;28;20048;-58
2023/11/13 01:08:10;;;;;;;1.10;1.00;;;;;;;7.22;86.35;96342.22;5108487;28;20039;-59
2023/11/13 01:10:36;;;;;;;1.25;1.15;;;;;;;7.21;85.31;96346.72;5091775;28;20036;-57
2023/11/13 01:13:02;;;;;;;0.90;0.90;;;;;;;7.15;85.59;96347.88;5108128;28;20043;-59
2023/11/13 01:15:28;;;;;;;1.35;0.88;;;;;;;7.18;86.34;96344.66;5091225;28;20093;-59
2023/11/13 01:17:54;;;;;;;1.20;1.10;;;;;;;7.16;85.64;96348.63;5092680;28;20047;-58
2023/11/13 01:20:20;;;;;;;1.38;0.98;;;;;;;7.13;85.64;96352.63;5074378;28;20056;-59
2023/11/13 01:22:46;;;;;;;1.00;1.00;;;;;;;7.22;86.58;96361.44;5092612;28;20047;-58
2023/11/13 01:25:12;;;;;;;1.10;1.00;;;;;;;7.27;85.83;96360.56;5091148;28;20048;-60
2023/11/13 01:27:39;;;;;;;1.23;1.00;;;;;;;7.22;85.36;96358.78;5092743;28;20301;-57
2023/11/13 01:30:05;;;;;;;2.47;1.00;;;;;;;7.27;85.28;96365.84;5091349;28;20067;-59
2023/11/13 01:32:31;;;;;;;1.70;1.00;;;;;;;7.30;85.03;96361.84;5092528;28;20122;-57
2023/11/13 01:34:56;;;;;;;0.90;0.90;;;;;;;7.18;84.80;96362.31;5089345;28;20047;-60
2023/11/13 01:37:23;;;;;;;1.27;1.00;;;;;;;7.05;85.01;96364.59;5074265;28;20493;-58
2023/11/13 01:39:49;;;;;;;1.88;0.90;;;;;;;7.02;84.10;96373.06;5091096;28;20071;-59
2023/11/13 01:42:15;;;;;;;0.93;0.88;;;;;;;6.88;83.95;96366.19;5092126;28;20121;-58
2023/11/13 01:44:40;;;;;;;0.80;0.80;;;;;;;6.83;83.97;96359.94;5091087;28;20044;-59
2023/11/13 01:47:06;;;;;;;0.80;0.80;;;;;;;6.78;83.55;96365.28;5092033;28;20040;-61
2023/11/13 01:49:33;;;;;;;0.70;0.70;;;;;;;6.79;83.94;96376.59;5092262;28;20048;-60
2023/11/13 01:52:00;;;;;;;1.05;1.00;;;;;;;6.69;83.94;96372.28;5092065;28;20409;-60
2023/11/13 01:54:26;;;;;;;1.23;0.90;;;;;;;6.79;83.76;96376.59;5090707;28;20077;-60
2023/11/13 01:56:52;;;;;;;2.78;1.00;;;;;;;6.74;83.53;96384.59;5090539;28;20036;-59
2023/11/13 01:59:18;;;;;;;0.75;0.75;;;;;;;6.78;84.10;96381.09;5074000;28;20222;-61
2023/11/13 02:01:44;;;;;;;0.93;0.93;;;;;;;6.70;85.37;96387.00;5074867;28;20378;-59
2023/11/13 02:04:09;;;;;;;1.08;0.90;;;;;;;6.68;85.05;96386.50;5111932;28;20047;-56
2023/11/13 02:06:35;;;;;;;1.40;1.10;;;;;;;6.68;85.24;96377.84;5111882;28;20051;-59
2023/11/13 02:09:02;;;;;;;0.93;0.93;;;;;;;6.66;84.87;96390.50;5110884;28;20071;-57
2023/11/13 02:11:28;;;;;;;1.15;0.90;;;;;;;6.55;85.46;96387.97;5110734;28;20406;-59
2023/11/13 02:13:54;;;;;;;1.05;1.00;;;;;;;6.56;84.83;96394.84;5111896;28;20051;-58
2023/11/13 02:16:20;;;;;;;0.95;0.90;;;;;;;6.44;84.15;96393.66;5112138;28;20085;-57
2023/11/13 02:18:47;;;;;;;0.90;0.90;;;;;;;6.42;85.08;96391.34;5109758;28;20134;-59
2023/11/13 02:21:13;;;;;;;1.38;0.98;;;;;;;6.45;84.50;96382.09;5110925;28;20138;-58
2023/11/13 02:23:38;;;;;;;1.10;1.00;;;;;;;6.32;84.60;96399.34;5093022;28;20543;-59
2023/11/13 02:26:12;;;;;;;1.77;0.80;;;;;;;6.24;84.31;96394.72;5093751;28;20044;-61
2023/11/13 02:28:38;;;;;;;0.93;0.93;;;;;;;6.19;84.93;96397.41;5093871;28;20395;-59
2023/11/13 02:31:04;;;;;;;1.33;0.93;;;;;;;6.19;85.96;96389.53;5110681;28;20067;-60
2023/11/13 02:33:30;;;;;;;1.10;1.00;;;;;;;6.25;85.53;96398.91;5110721;28;20427;-57
2023/11/13 02:35:57;;;;;;;1.20;1.10;;;;;;;6.17;85.50;96394.28;5109719;28;20082;-59
2023/11/13 02:38:23;;;;;;;1.00;0.90;;;;;;;6.09;85.76;96399.13;5111444;28;20481;-59
2023/11/13 02:40:49;;;;;;;1.10;1.00;;;;;;;6.18;85.98;96407.16;5111719;28;20070;-58
2023/11/13 02:43:15;;;;;;;1.10;1.00;;;;;;;6.22;85.58;96405.53;5110481;28;20036;-60
2023/11/13 02:45:41;;;;;;;1.77;1.20;;;;;;;6.21;85.74;96409.22;5112010;28;20052;-61
2023/11/13 02:48:06;;;;;;;1.33;1.23;;;;;;;6.15;84.83;96405.09;5115706;28;20366;-59
2023/11/13 02:50:32;;;;;;;1.17;1.13;;;;;;;6.09;85.10;96403.59;5114442;28;20123;-60
2023/11/13 02:52:58;;;;;;;2.00;1.70;;;;;;;6.06;86.18;96404.94;5116074;28;20051;-58
2023/11/13 02:55:24;;;;;;;1.10;1.10;;;;;;;6.01;84.89;96415.50;5097710;28;20386;-60
2023/11/13 02:57:52;;;;;;;1.30;1.20;;;;;;;6.02;85.17;96413.66;5097435;28;20073;-59
2023/11/13 03:00:19;;;;;;;1.48;1.38;;;;;;;6.02;85.62;96408.38;5097821;28;20044;-60
2023/11/13 03:02:46;;;;;;;2.53;1.50;;;;;;;5.99;85.33;96417.63;5114325;28;20505;-59
2023/11/13 03:05:12;;;;;;;1.85;1.50;;;;;;;6.05;85.77;96420.97;5097119;28;20542;-59
2023/11/13 03:07:38;;;;;;;1.55;1.45;;;;;;;6.16;85.63;96421.66;5114294;28;20044;-58
2023/11/13 03:10:05;;;;;;;1.40;1.30;;;;;;;6.27;85.48;96425.72;5097348;28;20080;-61
2023/11/13 03:12:31;;;;;;;1.25;1.25;;;;;;;6.29;85.33;96431.47;5097463;28;20131;-59
2023/11/13 03:14:57;;;;;;;1.77;1.33;;;;;;;6.15;85.73;96431.41;5097315;28;20064;-59
2023/11/13 03:17:23;;;;;;;1.92;1.27;;;;;;;6.17;85.50;96428.47;5113814;28;20036;-59
2023/11/13 03:19:49;;;;;;;3.45;1.50;;;;;;;6.15;85.30;96428.75;5115333;28;20035;-60
2023/11/13 03:22:15;;;;;;;1.60;1.42;;;;;;;6.18;86.61;96436.09;5079752;28;20404;-59
2023/11/13 03:24:41;;;;;;;2.10;1.40;;;;;;;6.18;87.03;96433.47;5113009;28;20401;-60
2023/11/13 03:27:07;;;;;;;2.45;1.50;;;;;;;6.18;86.19;96435.28;5096678;28;20454;-60
2023/11/13 03:29:33;;;;;;;2.35;1.60;;;;;;;6.13;86.12;96433.50;5114048;28;20043;-62
2023/11/13 03:31:59;;;;;;;1.95;1.75;;;;;;;6.20;86.01;96438.44;5115042;28;20036;-58
2023/11/13 03:34:24;;;;;;;3.10;1.90;;;;;;;6.24;85.22;96432.34;5115063;28;20047;-61
2023/11/13 03:36:50;;;;;;;2.58;1.58;;;;;;;6.27;84.49;96439.66;5114911;28;20447;-60
2023/11/13 03:39:16;;;;;;;1.88;1.75;;;;;;;6.17;83.77;96452.16;5096859;28;20050;-58
2023/11/13 03:41:42;;;;;;;2.10;1.80;;;;;;;5.97;84.01;96443.44;5114893;28;20364;-58
2023/11/13 03:44:08;;;;;;;2.72;1.98;;;;;;;5.97;84.17;96448.69;5113314;28;20108;-61
2023/11/13 03:46:33;;;;;;;1.73;1.63;;;;;;;5.89;84.82;96457.16;5113284;28;20048;-56
2023/11/13 03:48:59;;;;;;;2.10;1.90;;;;;;;5.92;85.36;96444.22;5113267;28;20044;-58
2023/11/13 03:51:26;;;;;;;1.88;1.77;;;;;;;5.93;84.83;96452.91;5114769;28;20043;-59
2023/11/13 03:53:52;;;;;;;3.60;2.08;;;;;;;5.80;85.59;96449.09;5113383;28;20134;-58
2023/11/13 03:56:24;;;;;;;2.20;2.00;;;;;;;5.89;86.95;96459.78;5113034;28;20075;-60
2023/11/13 03:58:50;;;;;;;3.22;1.80;;;;;;;5.85;85.81;96453.50;5113799;28;20408;-60
2023/11/13 04:01:18;;;;;;;3.30;1.70;;;;;;;5.83;86.25;96453.78;5113660;28;20370;-60
2023/11/13 04:03:44;;;;;;;2.30;1.73;;;;;;;5.75;86.46;96458.88;5114655;28;20051;-58
2023/11/13 04:06:10;;;;;;;1.80;1.58;;;;;;;5.82;87.08;96460.09;5114530;28;20043;-60
2023/11/13 04:08:35;;;;;;;1.80;1.70;;;;;;;5.80;86.83;96450.94;5114358;28;20058;-58
2023/11/13 04:11:04;;;;;;;3.50;1.90;;;;;;;5.79;87.50;96462.50;5113977;28;20040;-60
2023/11/13 04:13:36;;;;;;;3.33;2.00;;;;;;;5.87;88.62;96462.66;5112607;28;20051;-59
2023/11/13 04:16:03;;;;;;;1.88;1.67;;;;;;;5.72;87.69;96465.44;5114059;28;20458;-60
2023/11/13 04:18:30;;;;;;;2.50;1.80;;;;;;;5.66;88.13;96472.59;5114002;28;20040;-60
2023/11/13 04:20:56;;;;;;;2.10;1.60;;;;;;;5.70;90.42;96472.81;5112822;28;20052;-59
2023/11/13 04:23:23;;;;;;;2.00;1.70;;;;;;;5.77;89.79;96477.78;5113589;28;20084;-59
2023/11/13 04:25:49;;;;;;;1.50;1.40;;;;;;;5.79;90.45;96483.53;5113584;28;20043;-58
2023/11/13 04:28:15;;;;;;;1.90;1.45;;;;;;;5.76;89.40;96476.97;5112614;28;20442;-58
2023/11/13 04:30:43;;;;;;;1.75;1.60;;;;;;;5.81;88.60;96491.91;5113485;28;20031;-58
2023/11/13 04:33:10;;;;;;;2.35;1.60;;;;;;;5.91;89.12;96492.63;5061236;28;20043;-58
2023/11/13 04:35:36;;;;;;;1.80;1.70;;;;;;;5.91;87.70;96497.88;5113308;28;20096;-57
2023/11/13 04:38:02;;;;;;;1.42;1.33;;;;;;;5.82;88.30;96491.63;5113373;28;20035;-58
2023/11/13 04:40:27;;;;;;;1.45;1.35;;;;;;;5.74;86.99;96499.34;5113753;28;20120;-61
2023/11/13 04:42:53;;;;;;;1.52;1.17;;;;;;;5.63;87.72;96506.53;5113749;28;20122;-58
2023/11/13 04:45:19;;;;;;;1.77;1.60;;;;;;;5.60;87.95;96507.88;5113555;28;20043;-59
2023/11/13 04:47:45;;;;;;;1.30;1.20;;;;;;;5.56;89.02;96511.31;5112425;28;20070;-58
2023/11/13 04:50:11;;;;;;;1.30;1.20;;;;;;;5.53;89.08;96511.84;5113522;28;20086;-61
2023/11/13 04:52:36;;;;;;;1.40;1.30;;;;;;;5.61;89.01;96516.53;5113288;28;20372;-58
2023/11/13 04:55:02;;;;;;;1.55;1.38;;;;;;;5.62;88.43;96518.91;5113076;28;20043;-59
2023/11/13 04:57:29;;;;;;;1.58;1.40;;;;;;;5.62;88.79;96524.16;5111698;28;20385;-58
2023/11/13 04:59:55;;;;;;;1.77;1.58;;;;;;;5.67;89.14;96526.72;5112285;28;20044;-60
2023/11/13 05:02:23;;;;;;;1.40;1.30;;;;;;;5.65;87.51;96526.22;5110826;28;20119;-58
2023/11/13 05:04:49;;;;;;;9.50;1.83;;;;;;;5.61;89.48;96529.66;5112751;28;20035;-59
2023/11/13 05:07:15;;;;;;;3.90;1.50;;;;;;;5.64;89.41;96535.16;5112566;28;20190;-59
2023/11/13 05:09:41;;;;;;;2.50;1.60;;;;;;;5.66;88.36;96534.88;5112082;28;20053;-59
2023/11/13 05:12:08;;;;;;;1.95;1.40;;;;;;;5.67;88.19;96542.47;5110964;28;20050;-59
2023/11/13 05:14:34;;;;;;;1.98;1.58;;;;;;;5.75;88.57;96537.72;5111077;28;20078;-60
2023/11/13 05:16:59;;;;;;;2.83;1.50;;;;;;;5.64;87.92;96539.63;5111112;28;20493;-60
2023/11/13 05:19:25;;;;;;;1.92;1.60;;;;;;;5.57;88.87;96541.78;5112266;28;20099;-62
2023/11/13 05:21:51;;;;;;;1.88;1.73;;;;;;;5.50;89.32;96539.50;5108317;28;20042;-60
2023/11/13 05:24:16;;;;;;;2.42;1.77;;;;;;;5.54;89.76;96544.97;5111365;28;20401;-60
2023/11/13 05:26:42;;;;;;;3.17;1.50;;;;;;;5.62;90.05;96539.91;5108865;28;20035;-59
2023/11/13 05:29:08;;;;;;;1.75;1.63;;;;;;;5.46;88.00;96541.06;5112556;28;20503;-61
2023/11/13 05:31:34;;;;;;;3.45;1.80;;;;;;;5.44;90.00;96548.44;5111585;27;20528;-59
2023/11/13 05:33:59;;;;;;;1.50;1.40;;;;;;;5.53;89.26;96553.91;5109999;27;20043;-58
2023/11/13 05:36:25;;;;;;;1.58;1.48;;;;;;;5.61;89.31;96550.69;5114524;27;20115;-59
2023/11/13 05:38:51;;;;;;;1.77;1.48;;;;;;;5.54;88.64;96561.53;5112383;28;20080;-58
2023/11/13 05:41:17;;;;;;;3.10;1.60;;;;;;;5.44;88.40;96551.06;5112511;27;20447;-59
2023/11/13 05:43:43;;;;;;;1.83;1.40;;;;;;;5.50;89.10;96565.75;5110567;27;20036;-60
2023/11/13 05:46:09;;;;;;;2.00;1.60;;;;;;;5.54;88.75;96564.16;5113609;27;20047;-59
2023/11/13 05:48:35;;;;;;;2.00;1.60;;;;;;;5.59;89.59;96563.31;5112538;28;20504;-58
2023/11/13 05:51:01;;;;;;;1.40;1.30;;;;;;;5.70;89.50;96573.47;5119009;27;20043;-59
2023/11/13 05:53:27;;;;;;;2.50;1.50;;;;;;;5.67;88.85;96575.88;5131400;27;20069;-59
2023/11/13 05:55:53;;;;;;;1.70;1.40;;;;;;;5.56;88.07;96572.53;5132529;27;20083;-60
2023/11/13 05:58:18;;;;;;;2.67;1.60;;;;;;;5.56;89.44;96580.44;5132157;27;20416;-59
2023/11/13 06:00:44;;;;;;;2.15;1.70;;;;;;;5.47;88.68;96574.97;5131692;27;20035;-60
2023/11/13 06:03:10;;;;;;;2.55;1.33;;;;;;;5.55;89.10;96584.09;5100588;28;20046;-60
2023/11/13 06:05:36;;;;;;;2.30;1.50;;;;;;;5.59;88.62;96592.22;5115764;27;20039;-60
2023/11/13 06:08:02;;;;;;;2.35;1.30;;;;;;;5.62;87.68;96589.84;5132610;27;20049;-60
2023/11/13 06:10:28;;;;;;;1.30;1.20;;;;;;;5.67;88.31;96596.88;5130592;27;20043;-60
2023/11/13 06:12:54;;;;;;;1.63;1.33;;;;;;;5.76;88.14;96605.75;5110338;27;20059;-62
2023/11/13 06:15:20;;;;;;;2.92;1.15;;;;;;;5.84;87.30;96618.31;5111790;27;20523;-59
2023/11/13 06:17:46;;;;;;;2.13;1.25;;;;;;;5.86;86.98;96623.31;5111811;28;20079;-59
2023/11/13 06:20:13;;;;;;;1.55;1.30;;;;;;;5.86;86.72;96631.22;5112936;27;20084;-61
2023/11/13 06:22:43;;;;;;;1.23;1.13;;;;;;;5.82;86.94;96630.16;5099962;28;20040;-60
2023/11/13 06:25:10;;;;;;;0.90;0.90;;;;;;;5.70;84.42;96638.41;5109349;28;20047;-61
2023/11/13 06:27:37;;;;;;;0.98;0.98;;;;;;;5.63;84.33;96641.34;5110862;28;20305;-59
2023/11/13 06:30:04;;;;;;;0.80;0.80;;;;;;;5.57;84.39;96649.53;5109877;28;20050;-60
2023/11/13 06:32:31;;;;;;;1.13;0.80;;;;;;;5.46;84.46;96652.19;5111598;27;20099;-60
2023/11/13 06:34:57;;;;;;;1.80;0.95;;;;;;;5.40;85.36;96665.63;5111516;28;20051;-60
2023/11/13 06:37:23;;;;;;;0.60;0.60;;;;;;;5.30;83.38;96663.84;5131177;28;20409;-60
2023/11/13 06:39:49;;;;;;;0.60;0.60;;;;;;;5.15;82.57;96677.06;5132035;27;20055;-61
2023/11/13 06:42:15;;;;;;;0.60;0.60;;;;;;;5.00;80.32;96683.91;5131829;27;20084;-61
2023/11/13 06:44:41;;;;;;;0.80;0.80;;;;;;;4.94;81.42;96687.63;5112975;27;20040;-59
2023/11/13 06:47:07;;;;;;;1.50;0.80;;;;;;;4.90;80.68;96696.28;5110940;28;20059;-60
2023/11/13 06:49:38;;;;;;;2.38;0.75;;;;;;;4.97;82.25;96702.03;5111013;28;20044;-60
2023/11/13 06:52:07;;;;;;;;;;;;;;;4.95;82.99;96710.19;5112784;28;20052;-60
2023/11/13 06:54:33;;;;;;;0.85;0.80;;;;;;;4.89;81.46;96720.97;5110842;28;19949;-60
2023/11/13 06:56:58;;;;;;;0.70;0.70;;;;;;;4.86;81.82;96732.00;5074609;28;20043;-59
2023/11/13 06:59:25;;;;;;;1.00;0.75;;;;;;;4.76;82.17;96717.03;5111684;28;20105;-61
2023/11/13 07:01:52;;;;;;;0.70;0.70;;;;;;;4.72;81.98;96726.50;5124165;28;20039;-60
2023/11/13 07:04:18;;;;;;;0.70;0.70;;;;;;;4.69;82.03;96742.78;5111159;28;20468;-59
2023/11/13 07:06:45;;;;;;;0.85;0.85;;;;;;;4.67;82.33;96740.41;5125869;28;20039;-59
2023/11/13 07:09:11;;;;;;;0.70;0.70;;;;;;;4.68;82.04;96743.81;5110969;27;20123;-60
2023/11/13 07:11:38;;;;;;;1.00;1.00;;;;;;;4.62;82.01;96750.91;5108703;28;20044;-60
2023/11/13 07:14:07;;;;;;;1.25;0.90;;;;;;;4.60;82.17;96757.47;5110819;28;20150;-59
2023/11/13 07:16:36;;;;;;;0.90;0.90;;;;;;;4.49;82.37;96756.69;5104752;28;20561;-58
2023/11/13 07:19:03;;;;;;;0.80;0.80;;;;;;;4.50;82.03;96760.84;5109116;28;20457;-58
2023/11/13 07:21:32;;;;;;;0.90;0.90;;;;;;;4.47;81.58;96756.13;5112148;28;20416;-60
2023/11/13 07:23:59;;;;;;;1.85;0.75;;;;;;;4.44;81.51;96772.41;5108120;28;20124;-59
2023/11/13 07:26:26;;;;;;;0.80;0.80;;;;;;;4.52;81.61;96771.88;5112000;28;20039;-59
2023/11/13 07:28:52;;;;;;;0.80;0.80;;;;;;;4.52;82.42;96777.13;5109391;28;20031;-58
2023/11/13 07:31:22;;;;;;;0.88;0.88;;;;;;;4.49;81.17;96782.91;5110483;28;20047;-60
2023/11/13 07:33:51;;;;;;;0.80;0.80;;;;;;;4.57;81.94;96785.00;5113040;28;20054;-60
2023/11/13 07:36:17;;;;;;;1.38;0.90;;;;;;;4.52;81.52;96785.00;5111906;27;20069;-59
2023/11/13 07:38:43;;;;;;;0.90;0.90;;;;;;;4.53;80.59;96792.63;5114206;28;20039;-58
2023/11/13 07:41:11;;;;;;;0.93;0.90;;;;;;;4.57;80.69;96805.22;5115662;27;20059;-59
2023/11/13 07:43:41;;;;;;;1.02;1.00;;;;;;;4.65;80.27;96815.19;5111713;28;20112;-58
2023/11/13 07:46:08;;;;;;;0.80;0.80;;;;;;;4.69;80.26;96811.78;5115667;27;20048;-60
2023/11/13 07:48:35;;;;;;;0.73;0.70;;;;;;;4.67;79.83;96816.50;5114434;28;20053;-58
2023/11/13 07:51:02;;;;;;;0.90;0.90;;;;;;;4.63;80.27;96819.91;5113948;27;20118;-58
2023/11/13 07:53:28;;;;;;;0.90;0.90;;;;;;;4.62;80.87;96820.94;5112802;28;20035;-60
2023/11/13 07:55:55;;;;;;;1.02;1.02;;;;;;;4.69;81.73;96830.16;5114082;27;20054;-59
2023/11/13 07:58:21;;;;;;;0.90;0.90;;;;;;;4.70;82.06;96830.94;5114004;28;20032;-60
2023/11/13 08:00:47;;;;;;;0.80;0.80;;;;;;;4.74;80.60;96829.38;5093676;28;20134;-60
2023/11/13 08:03:16;;;;;;;0.90;0.90;;;;;;;4.72;80.42;96834.88;5107679;28;20401;-59
2023/11/13 08:05:42;;;;;;;0.80;0.80;;;;;;;4.74;80.50;96845.13;5120060;27;20050;-61
2023/11/13 08:08:12;;;;;;;0.90;0.90;;;;;;;4.71;80.62;96848.25;5135063;27;20039;-61
2023/11/13 08:10:39;;;;;;;0.85;0.82;;;;;;;4.77;80.92;96857.72;5134668;27;20039;-59
2023/11/13 08:13:05;;;;;;;0.82;0.82;;;;;;;4.74;80.50;96848.53;5133069;27;20463;-61
2023/11/13 08:15:31;;;;;;;2.75;0.90;;;;;;;4.73;80.44;96861.91;5134301;27;20538;-60
2023/11/13 08:17:57;;;;;;;0.80;0.80;;;;;;;4.71;80.79;96856.13;5134537;27;20074;-59
2023/11/13 08:20:26;;;;;;;2.20;1.00;;;;;;;4.62;80.15;96861.13;5134526;27;20385;-60
2023/11/13 08:22:56;;;;;;;0.70;0.70;;;;;;;4.58;79.13;96869.75;5134686;27;20084;-60
2023/11/13 08:25:23;;;;;;;0.85;0.80;;;;;;;4.41;80.07;96864.72;5134105;27;20043;-60
2023/11/13 08:27:52;;;;;;;0.95;0.80;;;;;;;4.41;80.05;96865.53;5133195;27;20046;-59
2023/11/13 08:30:22;;;;;;;0.88;0.88;;;;;;;4.59;80.34;96876.56;5132764;27;20039;-59
2023/11/13 08:32:52;;;;;;;1.20;1.00;;;;;;;4.61;81.17;96877.88;5133072;27;20042;-61
2023/11/13 08:35:19;;;;;;;1.27;0.90;;;;;;;4.63;80.34;96882.88;5115755;27;20047;-61
2023/11/13 08:37:45;;;;;;;1.58;0.80;;;;;;;4.67;80.31;96876.06;5134364;27;20039;-61
2023/11/13 08:40:14;;;;;;;1.08;0.90;;;;;;;4.62;79.67;96887.34;5133359;27;20176;-58
2023/11/13 08:42:41;;;;;;;0.90;0.90;;;;;;;4.63;81.16;96888.91;5132684;27;20122;-60
2023/11/13 08:45:12;;;;;;;1.65;1.00;;;;;;;4.61;79.76;96895.47;5131487;27;20051;-59
2023/11/13 08:47:40;;;;;;;2.63;0.85;;;;;;;4.60;79.23;96907.03;5133065;27;20054;-59
2023/11/13 08:50:09;;;;;;;0.80;0.80;;;;;;;4.60;79.43;96896.53;5133911;27;20092;-60
2023/11/13 08:52:35;;;;;;;1.00;0.90;;;;;;;4.65;78.98;96915.69;5132673;27;20039;-60
2023/11/13 08:55:03;;;;;;;2.35;0.93;;;;;;;4.82;77.58;96917.28;5132110;27;20055;-61
2023/11/13 08:57:29;;;;;;;0.70;0.70;;;;;;;4.90;77.34;96914.16;5132702;27;20085;-59
2023/11/13 08:59:55;;;;;;;0.70;0.70;;;;;;;4.89;77.37;96920.47;5133939;27;20520;-60
2023/11/13 09:02:25;;;;;;;0.70;0.70;;;;;;;4.81;77.69;96923.59;5123051;27;20032;-58
2023/11/13 09:04:54;;;;;;;3.60;0.80;;;;;;;4.95;77.79;96927.28;5112317;27;20077;-62
2023/11/13 09:07:20;;;;;;;2.00;0.90;;;;;;;4.97;77.56;96939.09;5131160;27;20049;-61
2023/11/13 09:09:45;;;;;;;0.90;0.90;;;;;;;5.00;76.71;96937.81;5133415;27;20404;-61
2023/11/13 09:12:12;;;;;;;1.15;0.90;;;;;;;4.97;78.09;96941.72;5133061;27;20045;-60
2023/11/13 09:14:39;;;;;;;0.60;0.60;;;;;;;4.92;77.24;96931.22;5133037;27;20470;-61
2023/11/13 09:17:12;;;;;;;0.80;0.80;;;;;;;5.01;77.90;96945.41;5133074;27;20035;-61
2023/11/13 09:19:41;;;;;;;0.95;0.80;;;;;;;4.96;76.71;96949.84;5133183;27;20500;-61
2023/11/13 09:22:12;;;;;;;0.75;0.75;;;;;;;4.87;76.60;96954.81;5132091;27;20388;-63
2023/11/13 09:24:39;;;;;;;1.67;0.82;;;;;;;4.87;75.91;96952.22;5133793;27;20039;-61
2023/11/13 09:27:09;;;;;;;1.33;0.90;;;;;;;4.77;78.21;96949.56;5132930;27;20046;-61
2023/11/13 09:29:36;;;;;;;;;;;;;;;4.81;77.23;96953.25;5132569;27;20047;-61
2023/11/13 09:32:02;;;;;;;0.80;0.80;;;;;;;4.74;77.06;96956.13;5132820;27;19949;-61
2023/11/13 09:34:27;;;;;;;0.80;0.80;;;;;;;4.65;78.11;96949.81;5131643;27;20685;-62
2023/11/13 09:36:53;;;;;;;0.70;0.70;;;;;;;4.64;77.04;96950.84;5131552;27;20377;-62
2023/11/13 09:39:20;;;;;;;0.70;0.70;;;;;;;4.70;76.76;96960.28;5114872;27;20039;-61
2023/11/13 09:41:50;;;;;;;0.70;0.70;;;;;;;4.75;76.93;96964.78;5132583;27;20092;-62
2023/11/13 09:44:18;;;;;;;0.80;0.80;;;;;;;4.77;76.80;96971.34;5131814;27;20122;-61
2023/11/13 09:46:44;;;;;;;1.15;0.80;;;;;;;4.80;76.21;96971.88;5131420;27;20035;-61
2023/11/13 09:49:10;;;;;;;0.77;0.77;;;;;;;4.74;76.15;96971.88;5131268;27;20405;-62
2023/11/13 09:51:37;;;;;;;0.70;0.70;;;;;;;4.85;77.21;96972.66;5131083;27;20393;-61
2023/11/13 09:54:04;;;;;;;1.95;0.90;;;;;;;4.79;75.58;96976.34;5132402;27;20050;-60
2023/11/13 09:56:30;;;;;;;1.25;0.90;;;;;;;4.81;76.62;96981.34;5131575;27;20492;-62
2023/11/13 09:58:57;;;;;;;0.70;0.70;;;;;;;4.86;76.68;96983.97;5132645;27;20138;-62
2023/11/13 10:01:23;;;;;;;0.82;0.82;;;;;;;4.80;77.83;96998.13;5132106;27;20065;-60
2023/11/13 10:03:49;;;;;;;0.85;0.85;;;;;;;4.94;77.55;96991.31;5111969;28;20086;-59
2023/11/13 10:06:16;;;;;;;1.00;0.90;;;;;;;5.02;76.23;96990.81;5120558;27;20039;-62
2023/11/13 10:08:46;;;;;;;1.05;0.90;;;;;;;4.94;76.91;96993.94;5132694;27;20046;-61
2023/11/13 10:11:13;;;;;;;0.82;0.80;;;;;;;4.91;75.96;96994.47;5096929;27;20039;-61
2023/11/13 10:13:39;;;;;;;0.70;0.70;;;;;;;5.07;77.18;96997.94;5132136;27;20043;-59
2023/11/13 10:16:21;;;;;;;0.75;0.75;;;;;;;5.21;76.19;97006.88;5130988;27;20514;-61
2023/11/13 10:19:23;;;;;;;0.90;0.90;;;;;;;5.27;75.42;97013.72;5129172;27;20053;-60
2023/11/13 10:21:57;;;;;;;0.90;0.90;;;;;;;5.30;74.77;97010.56;5080313;28;20047;-61
2023/11/13 10:24:25;;;;;;;1.08;0.88;;;;;;;5.22;75.52;97008.47;5091996;28;20412;-60
2023/11/13 10:26:51;;;;;;;1.70;0.90;;;;;;;5.09;74.49;97022.88;5132117;27;20039;-61
2023/11/13 10:29:20;;;;;;;0.90;0.90;;;;;;;5.09;75.27;97022.88;5129467;28;20035;-61
2023/11/13 10:31:46;;;;;;;0.70;0.70;;;;;;;5.07;75.76;97035.47;5131810;27;20554;-59
2023/11/13 10:34:12;;;;;;;0.85;0.80;;;;;;;4.99;74.96;97020.22;5130275;28;20047;-61
2023/11/13 10:36:40;;;;;;;1.38;0.90;;;;;;;4.98;75.01;97029.16;5131950;27;20039;-60
2023/11/13 10:39:11;;;;;;;1.17;1.08;;;;;;;4.98;75.69;97022.06;5130466;28;20038;-61
2023/11/13 10:41:44;;;;;;;0.93;0.90;;;;;;;5.03;74.85;97029.19;5131825;27;20496;-60
2023/11/13 10:44:24;;;;;;;0.82;0.80;;;;;;;4.96;75.21;97026.00;5131184;27;20054;-59
2023/11/13 10:46:50;;;;;;;0.80;0.80;;;;;;;4.92;75.14;97040.69;5131675;27;20513;-60
2023/11/13 10:49:18;;;;;;;0.80;0.80;;;;;;;4.91;75.61;97045.16;5131659;27;20176;-60
2023/11/13 10:51:50;;;;;;;1.25;0.80;;;;;;;4.91;75.80;97042.53;5131862;27;20145;-59
2023/11/13 10:54:18;;;;;;;1.42;1.33;;;;;;;4.95;76.70;97058.56;5130488;28;20043;-62
2023/11/13 10:56:49;;;;;;;0.85;0.85;;;;;;;4.95;76.38;97061.97;5113868;28;20036;-60
2023/11/13 10:59:15;;;;;;;0.80;0.80;;;;;;;4.89;75.75;97067.47;5092085;28;20088;-60
2023/11/13 11:01:43;;;;;;;1.52;1.15;;;;;;;4.77;75.62;97075.56;5110773;28;20075;-59
2023/11/13 11:04:10;;;;;;;0.98;0.80;;;;;;;4.74;76.08;97074.22;5112076;28;20088;-61
2023/11/13 11:06:39;;;;;;;0.98;0.90;;;;;;;4.74;75.98;97082.09;5109507;28;20090;-61
2023/11/13 11:09:07;;;;;;;1.27;1.10;;;;;;;4.80;76.84;97088.16;5126349;27;20568;-61
2023/11/13 11:11:36;;;;;;;1.15;0.90;;;;;;;4.87;75.41;97080.03;5102470;28;20103;-59
2023/11/13 11:14:24;;;;;;;1.55;1.02;;;;;;;4.69;75.71;97086.53;5123214;27;20051;-62
2023/11/13 11:16:57;;;;;;;1.10;0.90;;;;;;;4.62;75.21;97083.34;5112774;28;20114;-60
2023/11/13 11:19:32;;;;;;;0.90;0.90;;;;;;;4.56;75.19;97090.41;5114081;27;20093;-58
2023/11/13 11:22:11;;;;;;;1.10;0.98;;;;;;;4.56;75.23;97087.78;5112144;28;20043;-59
2023/11/13 11:25:06;;;;;;;1.23;1.10;;;;;;;4.65;76.25;97109.09;5114909;27;20048;-59
2023/11/13 11:27:43;;;;;;;1.50;0.80;;;;;;;4.69;75.98;97105.69;5112734;27;20084;-62
2023/11/13 11:30:18;;;;;;;1.60;1.20;;;;;;;4.71;75.44;97105.44;5113224;28;20496;-60
2023/11/13 11:33:01;;;;;;;1.08;1.00;;;;;;;4.68;74.85;97106.75;5089674;28;20409;-59
2023/11/13 11:35:31;;;;;;;1.20;1.10;;;;;;;4.63;75.03;97103.31;5059486;28;20052;-60
2023/11/13 11:38:22;;;;;;;2.08;1.63;;;;;;;4.67;74.39;97126.13;5110047;27;20439;-59
2023/11/13 11:40:49;;;;;;;2.05;1.50;;;;;;;4.66;74.72;97118.53;5114194;28;20509;-61
2023/11/13 11:43:35;;;;;;;1.42;1.10;;;;;;;4.65;75.70;97115.13;5115988;27;20043;-61